createdAt,value
2022-12-25T00:01:13.828Z,8.70
2022-12-25T00:04:03.395Z,8.60
2022-12-25T00:06:44.756Z,10.20
2022-12-25T00:09:29.178Z,17.40
2022-12-25T00:12:15.728Z,15.50
2022-12-25T00:14:59.356Z,10.80
2022-12-25T00:17:43.976Z,9.90
2022-12-25T00:20:24.531Z,14.90
2022-12-25T00:23:13.800Z,9.60
2022-12-25T00:26:08.829Z,7.00
2022-12-25T00:28:55.009Z,13.80
2022-12-25T00:31:37.730Z,15.60
2022-12-25T00:34:22.424Z,22.60
2022-12-25T00:37:00.772Z,9.70
2022-12-25T00:39:40.960Z,8.00
2022-12-25T00:42:26.318Z,11.10
2022-12-25T00:45:09.598Z,11.80
2022-12-25T00:47:50.645Z,7.20
2022-12-25T00:50:30.468Z,6.90
2022-12-25T00:53:15.430Z,7.50
2022-12-25T00:56:13.659Z,7.50
2022-12-25T00:58:57.301Z,6.40
2022-12-25T01:01:40.834Z,7.70
2022-12-25T01:04:18.928Z,7.30
2022-12-25T01:07:00.932Z,5.80
2022-12-25T01:10:01.614Z,4.60
2022-12-25T01:12:46.218Z,4.20
2022-12-25T01:15:28.890Z,6.90
2022-12-25T01:18:11.614Z,6.00
2022-12-25T01:20:51.641Z,6.70
2022-12-25T01:23:33.685Z,5.30
2022-12-25T01:26:18.609Z,5.80
2022-12-25T01:29:03.545Z,4.40
2022-12-25T01:31:41.320Z,4.90
2022-12-25T01:34:33.898Z,5.80
2022-12-25T01:37:15.657Z,6.70
2022-12-25T01:39:56.914Z,6.30
2022-12-25T01:42:39.498Z,7.20
2022-12-25T01:45:54.252Z,5.90
2022-12-25T01:48:36.591Z,6.90
2022-12-25T01:51:28.552Z,6.60
2022-12-25T01:54:11.865Z,6.60
2022-12-25T01:56:56.280Z,4.80
2022-12-25T01:59:36.711Z,5.90
2022-12-25T02:02:27.399Z,6.30
2022-12-25T02:05:33.140Z,6.30
2022-12-25T02:08:19.056Z,7.60
2022-12-25T02:11:02.337Z,7.00
2022-12-25T02:13:47.668Z,7.00
2022-12-25T02:16:57.853Z,9.90
2022-12-25T02:20:09.296Z,8.20
2022-12-25T02:23:39.750Z,6.90
2022-12-25T02:26:30.187Z,8.00
2022-12-25T02:29:37.582Z,8.50
2022-12-25T02:32:25.228Z,9.80
2022-12-25T02:35:22.998Z,8.80
2022-12-25T02:38:12.253Z,8.50
2022-12-25T02:41:04.701Z,6.60
2022-12-25T02:44:07.730Z,7.40
2022-12-25T02:47:08.519Z,5.90
2022-12-25T02:50:10.447Z,6.40
2022-12-25T02:53:10.991Z,5.30
2022-12-25T02:56:15.553Z,4.80
2022-12-25T02:59:15.663Z,6.00
2022-12-25T03:02:18.946Z,4.60
2022-12-25T03:05:29.627Z,4.20
2022-12-25T03:08:25.095Z,5.20
2022-12-25T03:11:31.260Z,4.70
2022-12-25T03:14:32.189Z,5.80
2022-12-25T03:17:16.840Z,4.80
2022-12-25T03:20:17.430Z,5.30
2022-12-25T03:23:19.796Z,5.40
2022-12-25T03:26:17.071Z,5.70
2022-12-25T03:28:55.201Z,5.30
2022-12-25T03:31:53.251Z,5.40
2022-12-25T03:35:28.464Z,5.40
2022-12-25T03:38:54.557Z,5.20
2022-12-25T03:42:02.796Z,5.50
2022-12-25T03:45:37.067Z,5.90
2022-12-25T03:48:38.101Z,8.90
2022-12-25T03:51:44.185Z,9.60
2022-12-25T03:54:47.702Z,6.50
2022-12-25T03:57:50.220Z,6.80
2022-12-25T04:00:53.924Z,6.90
2022-12-25T04:03:52.066Z,6.20
2022-12-25T04:06:56.336Z,6.40
2022-12-25T04:09:59.165Z,5.70
2022-12-25T04:13:03.235Z,8.20
2022-12-25T04:16:12.604Z,8.00
2022-12-25T04:19:08.055Z,8.00
2022-12-25T04:22:15.186Z,8.20
2022-12-25T04:25:17.562Z,7.40
2022-12-25T04:28:36.003Z,6.30
2022-12-25T04:31:40.551Z,7.00
2022-12-25T04:34:44.913Z,6.80
2022-12-25T04:37:32.020Z,8.30
2022-12-25T04:40:12.404Z,6.90
2022-12-25T04:42:50.087Z,7.30
2022-12-25T04:45:31.780Z,8.50
2022-12-25T04:48:11.103Z,7.40
2022-12-25T04:50:55.342Z,7.20
2022-12-25T04:53:32.631Z,6.90
2022-12-25T04:56:15.428Z,7.60
2022-12-25T04:58:55.074Z,7.60
2022-12-25T05:01:40.245Z,7.70
2022-12-25T05:04:18.390Z,6.60
2022-12-25T05:07:16.717Z,8.60
2022-12-25T05:09:56.616Z,9.40
2022-12-25T05:12:46.031Z,10.60
2022-12-25T05:15:24.543Z,13.20
2022-12-25T05:18:15.306Z,10.70
2022-12-25T05:21:04.830Z,9.80
2022-12-25T05:23:55.072Z,8.10
2022-12-25T05:26:33.512Z,11.00
2022-12-25T05:29:12.662Z,8.20
2022-12-25T05:31:51.735Z,6.80
2022-12-25T05:34:44.599Z,9.00
2022-12-25T05:37:23.958Z,6.70
2022-12-25T05:40:08.852Z,7.50
2022-12-25T05:42:48.449Z,7.50
2022-12-25T05:45:47.289Z,6.40
2022-12-25T05:48:25.600Z,6.80
2022-12-25T05:51:17.010Z,7.00
2022-12-25T05:53:57.621Z,12.00
2022-12-25T05:56:49.672Z,12.30
2022-12-25T05:59:27.953Z,8.00
2022-12-25T06:02:16.650Z,7.10
2022-12-25T06:04:56.245Z,9.60
2022-12-25T06:07:42.365Z,8.70
2022-12-25T06:10:18.729Z,8.50
2022-12-25T06:13:02.749Z,7.50
2022-12-25T06:15:46.277Z,7.60
2022-12-25T06:18:35.060Z,7.20
2022-12-25T06:21:16.042Z,6.90
2022-12-25T06:24:00.050Z,6.30
2022-12-25T06:26:39.477Z,6.00
2022-12-25T06:29:22.913Z,6.50
2022-12-25T06:32:02.524Z,6.70
2022-12-25T06:34:46.001Z,7.60
2022-12-25T06:37:35.041Z,7.70
2022-12-25T06:40:16.364Z,7.20
2022-12-25T06:43:00.316Z,6.90
2022-12-25T06:45:43.698Z,6.00
2022-12-25T06:48:27.027Z,6.50
2022-12-25T06:51:13.788Z,7.00
2022-12-25T06:53:53.912Z,6.90
2022-12-25T06:56:38.483Z,7.20
2022-12-25T06:59:22.790Z,7.10
2022-12-25T07:02:08.425Z,6.90
2022-12-25T07:04:51.914Z,7.20
2022-12-25T07:07:36.401Z,6.20
2022-12-25T07:10:16.799Z,7.60
2022-12-25T07:13:03.236Z,16.10
2022-12-25T07:18:29.417Z,8.50
2022-12-25T07:21:22.843Z,7.50
2022-12-25T07:24:04.507Z,9.60
2022-12-25T07:26:52.556Z,7.40
2022-12-25T07:29:37.378Z,6.10
2022-12-25T07:32:16.605Z,6.50
2022-12-25T07:35:07.265Z,5.90
2022-12-25T07:37:57.034Z,6.00
2022-12-25T07:40:37.516Z,7.50
2022-12-25T07:43:20.805Z,10.20
2022-12-25T07:46:16.830Z,8.30
2022-12-25T07:48:56.995Z,7.40
2022-12-25T07:51:38.174Z,20.90
2022-12-25T07:54:18.711Z,8.00
2022-12-25T07:57:03.732Z,8.20
2022-12-25T07:59:58.033Z,7.60
2022-12-25T08:02:42.277Z,7.50
2022-12-25T08:05:20.602Z,7.40
2022-12-25T08:08:02.273Z,7.50
2022-12-25T08:10:41.787Z,10.30
2022-12-25T08:13:22.523Z,7.70
2022-12-25T08:16:06.789Z,8.30
2022-12-25T08:18:47.864Z,9.10
2022-12-25T08:21:27.320Z,10.60
2022-12-25T08:26:51.010Z,11.20
2022-12-25T08:29:35.600Z,10.20
2022-12-25T08:32:18.650Z,9.60
2022-12-25T08:35:04.121Z,9.10
2022-12-25T08:37:41.814Z,9.40
2022-12-25T08:40:24.895Z,10.50
2022-12-25T08:43:03.484Z,10.40
2022-12-25T08:45:49.783Z,11.50
2022-12-25T08:48:29.240Z,12.20
2022-12-25T08:51:11.312Z,12.60
2022-12-25T08:53:49.339Z,13.20
2022-12-25T08:56:36.500Z,14.20
2022-12-25T08:59:16.535Z,13.40
2022-12-25T09:01:55.690Z,13.80
2022-12-25T09:04:35.725Z,16.30
2022-12-25T09:07:22.765Z,12.80
2022-12-25T09:10:01.732Z,10.80
2022-12-25T09:12:49.756Z,16.20
2022-12-25T09:15:28.279Z,11.80
2022-12-25T09:18:13.530Z,14.60
2022-12-25T09:20:52.968Z,14.20
2022-12-25T09:23:37.840Z,14.70
2022-12-25T09:26:18.915Z,17.20
2022-12-25T09:28:58.841Z,18.20
2022-12-25T09:31:39.735Z,12.20
2022-12-25T09:34:19.533Z,8.90
2022-12-25T09:36:59.702Z,11.80
2022-12-25T09:39:42.170Z,13.40
2022-12-25T09:42:41.080Z,24.50
2022-12-25T09:45:44.091Z,29.60
2022-12-25T09:51:14.823Z,11.90
2022-12-25T09:54:06.078Z,16.40
2022-12-25T09:56:46.709Z,14.90
2022-12-25T09:59:32.529Z,15.10
2022-12-25T10:02:49.926Z,15.90
2022-12-25T10:06:07.476Z,20.60
2022-12-25T10:09:26.262Z,15.60
2022-12-25T10:12:44.025Z,21.80
2022-12-25T10:15:58.709Z,19.60
2022-12-25T10:18:57.908Z,46.30
2022-12-25T10:21:41.082Z,47.40
2022-12-25T10:27:22.401Z,22.50
2022-12-25T10:30:05.119Z,27.70
2022-12-25T10:33:01.682Z,29.20
2022-12-25T10:35:43.413Z,25.10
2022-12-25T10:38:32.490Z,17.40
2022-12-25T10:41:20.942Z,18.00
2022-12-25T10:44:03.774Z,25.10
2022-12-25T10:46:51.785Z,13.10
2022-12-25T10:49:41.606Z,12.70
2022-12-25T10:52:39.511Z,10.60
2022-12-25T10:55:31.101Z,12.10
2022-12-25T10:58:11.245Z,14.50
2022-12-25T11:01:06.096Z,22.80
2022-12-25T11:03:52.293Z,15.50
2022-12-25T11:06:41.848Z,16.10
2022-12-25T11:09:24.477Z,21.30
2022-12-25T11:12:08.833Z,25.20
2022-12-25T11:15:05.016Z,26.80
2022-12-25T11:17:56.954Z,18.20
2022-12-25T11:20:43.782Z,19.00
2022-12-25T11:23:39.251Z,26.40
2022-12-25T11:26:26.929Z,29.80
2022-12-25T11:29:20.968Z,24.80
2022-12-25T11:32:04.341Z,19.90
2022-12-25T11:34:54.475Z,37.40
2022-12-25T11:37:49.915Z,35.80
2022-12-25T11:40:33.866Z,36.40
2022-12-25T11:43:40.731Z,29.30
2022-12-25T11:46:26.866Z,21.70
2022-12-25T11:49:16.369Z,21.00
2022-12-25T11:52:03.390Z,33.10
2022-12-25T11:55:03.539Z,25.00
2022-12-25T11:57:46.051Z,23.20
2022-12-25T12:00:28.931Z,22.00
2022-12-25T12:03:33.988Z,28.50
2022-12-25T12:06:41.235Z,43.60
2022-12-25T12:09:35.958Z,19.60
2022-12-25T12:12:57.915Z,18.50
2022-12-25T12:15:52.338Z,21.80
2022-12-25T12:18:37.028Z,18.10
2022-12-25T12:21:37.944Z,22.80
2022-12-25T12:24:26.549Z,17.70
2022-12-25T12:27:18.571Z,11.90
2022-12-25T12:30:06.582Z,9.70
2022-12-25T12:32:54.634Z,11.70
2022-12-25T12:35:41.481Z,12.00
2022-12-25T12:38:27.897Z,10.20
2022-12-25T12:41:17.131Z,11.40
2022-12-25T12:44:14.367Z,12.60
2022-12-25T12:47:05.101Z,14.10
2022-12-25T12:49:48.502Z,15.90
2022-12-25T12:52:41.250Z,14.50
2022-12-25T12:55:36.583Z,14.50
2022-12-25T12:58:07.116Z,16.90
2022-12-25T13:01:17.918Z,38.30
2022-12-25T13:04:31.880Z,53.00
2022-12-25T13:07:42.297Z,34.20
2022-12-25T13:10:27.053Z,25.60
2022-12-25T13:13:17.115Z,21.40
2022-12-25T13:16:02.052Z,21.20
2022-12-25T13:18:47.157Z,15.80
2022-12-25T13:21:31.894Z,20.90
2022-12-25T13:24:28.364Z,20.90
2022-12-25T13:27:46.384Z,25.30
2022-12-25T13:30:36.865Z,27.00
2022-12-25T13:33:29.235Z,20.70
2022-12-25T13:36:27.263Z,21.90
2022-12-25T13:39:19.370Z,16.60
2022-12-25T13:42:15.445Z,11.70
2022-12-25T13:45:02.782Z,11.10
2022-12-25T13:47:55.471Z,10.30
2022-12-25T13:50:42.586Z,10.30
2022-12-25T13:53:32.943Z,19.40
2022-12-25T13:56:19.340Z,20.70
2022-12-25T13:59:31.114Z,23.70
2022-12-25T14:02:27.878Z,29.00
2022-12-25T14:05:37.662Z,36.20
2022-12-25T14:08:31.079Z,46.90
2022-12-25T14:11:16.089Z,59.50
2022-12-25T14:14:08.122Z,43.30
2022-12-25T14:16:52.269Z,39.50
2022-12-25T14:19:31.169Z,37.10
2022-12-25T14:22:27.468Z,26.90
2022-12-25T14:25:19.106Z,19.60
2022-12-25T14:28:03.949Z,20.80
2022-12-25T14:30:52.101Z,19.50
2022-12-25T14:33:33.224Z,25.50
2022-12-25T14:36:18.525Z,30.80
2022-12-25T14:39:06.428Z,36.40
2022-12-25T14:41:56.858Z,33.20
2022-12-25T14:44:49.569Z,33.70
2022-12-25T14:47:33.277Z,33.10
2022-12-25T14:50:39.552Z,81.20
2022-12-25T14:53:25.246Z,38.70
2022-12-25T14:56:12.093Z,36.50
2022-12-25T14:58:58.705Z,43.30
2022-12-25T15:01:48.198Z,32.40
2022-12-25T15:04:32.261Z,37.20
2022-12-25T15:07:36.317Z,30.30
2022-12-25T15:10:58.370Z,48.80
2022-12-25T15:13:26.810Z,39.00
2022-12-25T15:16:32.655Z,34.50
2022-12-25T15:19:40.779Z,42.70
2022-12-25T15:22:19.547Z,32.70
2022-12-25T15:25:04.744Z,46.70
2022-12-25T15:27:44.874Z,54.80
2022-12-25T15:30:31.318Z,60.70
2022-12-25T15:33:09.056Z,43.60
2022-12-25T15:35:53.076Z,37.60
2022-12-25T15:38:41.767Z,37.90
2022-12-25T15:41:46.753Z,36.50
2022-12-25T15:44:31.952Z,37.80
2022-12-25T15:47:25.159Z,39.90
2022-12-25T15:50:04.590Z,44.80
2022-12-25T15:52:46.318Z,69.00
2022-12-25T15:55:28.254Z,41.70
2022-12-25T15:58:09.000Z,47.90
2022-12-25T16:00:49.056Z,62.30
2022-12-25T16:03:30.742Z,45.20
2022-12-25T16:06:14.804Z,51.30
2022-12-25T16:08:56.213Z,67.60
2022-12-25T16:11:34.614Z,61.90
2022-12-25T16:14:29.396Z,45.20
2022-12-25T16:17:11.597Z,41.60
2022-12-25T16:19:54.163Z,39.80
2022-12-25T16:22:33.271Z,39.60
2022-12-25T16:25:28.521Z,41.00
2022-12-25T16:28:15.382Z,40.40
2022-12-25T16:30:57.762Z,41.00
2022-12-25T16:33:39.644Z,33.00
2022-12-25T16:36:27.066Z,28.00
2022-12-25T16:39:12.949Z,31.50
2022-12-25T16:41:58.587Z,33.90
2022-12-25T16:44:41.745Z,52.60
2022-12-25T16:47:21.029Z,33.70
2022-12-25T16:50:06.841Z,57.00
2022-12-25T16:52:51.494Z,50.50
2022-12-25T16:55:31.840Z,52.50
2022-12-25T16:58:20.173Z,49.70
2022-12-25T17:01:12.417Z,48.30
2022-12-25T17:04:04.476Z,41.90
2022-12-25T17:06:47.665Z,39.10
2022-12-25T17:09:44.807Z,36.00
2022-12-25T17:12:26.004Z,41.40
2022-12-25T17:15:20.487Z,37.20
2022-12-25T17:17:58.971Z,39.50
2022-12-25T17:20:43.112Z,29.60
2022-12-25T17:23:40.612Z,35.40
2022-12-25T17:26:28.349Z,38.80
2022-12-25T17:29:22.684Z,55.20
2022-12-25T17:32:04.188Z,39.50
2022-12-25T17:34:43.810Z,25.70
2022-12-25T17:37:26.214Z,19.60
2022-12-25T17:40:08.203Z,18.50
2022-12-25T17:42:42.104Z,18.80
2022-12-25T17:45:28.370Z,14.50
2022-12-25T17:48:10.074Z,15.80
2022-12-25T17:50:51.859Z,20.60
2022-12-25T17:53:36.743Z,21.60
2022-12-25T17:56:22.034Z,21.00
2022-12-25T17:59:31.034Z,11.80
2022-12-25T18:02:12.910Z,12.70
2022-12-25T18:04:55.801Z,10.90
2022-12-25T18:07:41.291Z,9.50
2022-12-25T18:10:25.283Z,12.30
2022-12-25T18:13:16.942Z,12.70
2022-12-25T18:16:07.366Z,11.50
2022-12-25T18:18:52.281Z,12.50
2022-12-25T18:21:40.018Z,12.40
2022-12-25T18:24:20.950Z,14.00
2022-12-25T18:27:02.482Z,11.20
2022-12-25T18:29:40.311Z,14.30
2022-12-25T18:32:27.833Z,15.40
2022-12-25T18:35:06.890Z,18.20
2022-12-25T18:37:52.408Z,14.10
2022-12-25T18:40:33.329Z,12.20
2022-12-25T18:43:51.428Z,11.90
2022-12-25T18:46:24.958Z,19.30
2022-12-25T18:49:10.843Z,16.00
2022-12-25T18:51:50.402Z,20.70
2022-12-25T18:54:32.877Z,15.90
2022-12-25T18:57:07.857Z,29.60
2022-12-25T18:59:50.406Z,16.20
2022-12-25T19:02:31.543Z,14.00
2022-12-25T19:05:15.968Z,10.70
2022-12-25T19:07:55.074Z,11.60
2022-12-25T19:10:36.606Z,12.90
2022-12-25T19:13:15.162Z,9.10
2022-12-25T19:15:56.145Z,8.60
2022-12-25T19:18:39.147Z,9.80
2022-12-25T19:21:22.101Z,9.40
2022-12-25T19:24:00.237Z,8.60
2022-12-25T19:26:50.736Z,9.40
2022-12-25T19:29:29.117Z,10.30
2022-12-25T19:32:18.010Z,8.60
2022-12-25T19:34:57.526Z,8.00
2022-12-25T19:37:44.516Z,10.20
2022-12-25T19:40:27.900Z,12.00
2022-12-25T19:43:20.998Z,10.80
2022-12-25T19:46:03.319Z,16.90
2022-12-25T19:48:50.603Z,16.20
2022-12-25T19:51:32.009Z,13.50
2022-12-25T19:54:15.621Z,13.40
2022-12-25T19:57:01.928Z,11.50
2022-12-25T19:59:42.124Z,11.10
2022-12-25T20:02:27.261Z,9.00
2022-12-25T20:05:10.966Z,11.30
2022-12-25T20:07:52.963Z,12.70
2022-12-25T20:10:32.684Z,9.10
2022-12-25T20:13:14.777Z,12.20
2022-12-25T20:16:00.305Z,10.40
2022-12-25T20:18:44.684Z,9.80
2022-12-25T20:21:27.898Z,10.70
2022-12-25T20:24:12.935Z,12.10
2022-12-25T20:27:01.615Z,9.30
2022-12-25T20:29:40.610Z,8.50
2022-12-25T20:32:18.823Z,9.60
2022-12-25T20:35:02.478Z,9.70
2022-12-25T20:37:44.198Z,9.60
2022-12-25T20:40:27.598Z,10.70
2022-12-25T20:43:10.411Z,9.20
2022-12-25T20:46:02.756Z,8.30
2022-12-25T20:48:46.857Z,10.70
2022-12-25T20:51:37.136Z,8.40
2022-12-25T20:54:14.697Z,10.10
2022-12-25T20:56:51.700Z,13.00
2022-12-25T20:59:37.983Z,9.60
2022-12-25T21:02:35.338Z,8.40
2022-12-25T21:05:20.964Z,10.10
2022-12-25T21:08:00.096Z,8.10
2022-12-25T21:10:41.169Z,7.90
2022-12-25T21:13:19.631Z,7.70
2022-12-25T21:16:09.349Z,11.20
2022-12-25T21:18:51.377Z,9.30
2022-12-25T21:21:34.263Z,8.50
2022-12-25T21:24:12.657Z,8.90
2022-12-25T21:27:06.356Z,8.00
2022-12-25T21:29:45.248Z,8.60
2022-12-25T21:33:09.456Z,10.10
2022-12-25T21:35:49.056Z,7.00
2022-12-25T21:38:25.393Z,8.20
2022-12-25T21:41:14.009Z,6.30
2022-12-25T21:43:58.960Z,6.40
2022-12-25T21:46:39.390Z,6.50
2022-12-25T21:49:41.021Z,6.00
2022-12-25T21:52:20.029Z,6.60
2022-12-25T21:55:05.419Z,6.50
2022-12-25T21:57:53.271Z,6.30
2022-12-25T22:00:34.456Z,7.60
2022-12-25T22:03:13.444Z,8.30
2022-12-25T22:06:19.267Z,11.60
2022-12-25T22:09:06.633Z,7.70
2022-12-25T22:12:06.873Z,6.50
2022-12-25T22:14:57.252Z,5.70
2022-12-25T22:18:02.055Z,5.50
2022-12-25T22:20:45.988Z,8.00
2022-12-25T22:23:35.798Z,6.60
2022-12-25T22:26:20.487Z,5.80
2022-12-25T22:29:08.419Z,7.30
2022-12-25T22:31:47.815Z,7.90
2022-12-25T22:37:20.508Z,7.00
2022-12-25T22:40:03.895Z,6.50
2022-12-25T22:42:43.402Z,8.00
2022-12-25T22:45:26.871Z,7.80
2022-12-25T22:48:07.878Z,7.90
2022-12-25T22:50:54.420Z,7.50
2022-12-25T22:53:35.562Z,8.30
2022-12-25T22:56:23.211Z,6.80
2022-12-25T22:58:56.900Z,5.00
2022-12-25T23:01:37.110Z,6.10
2022-12-25T23:04:20.524Z,6.30
2022-12-25T23:07:05.614Z,5.90
2022-12-25T23:09:48.263Z,5.60
2022-12-25T23:12:47.525Z,9.20
2022-12-25T23:15:35.455Z,7.60
2022-12-25T23:18:31.918Z,6.80
2022-12-25T23:21:35.911Z,10.10
2022-12-25T23:24:43.398Z,5.90
2022-12-25T23:27:23.897Z,5.60
2022-12-25T23:30:10.401Z,5.10
2022-12-25T23:32:57.480Z,5.70
2022-12-25T23:35:38.982Z,6.60
2022-12-25T23:38:18.990Z,6.30
2022-12-25T23:41:04.095Z,6.50
2022-12-25T23:43:51.000Z,5.70
2022-12-25T23:46:35.616Z,6.10
2022-12-25T23:49:17.001Z,6.50
2022-12-25T23:51:58.260Z,6.30
2022-12-25T23:54:36.076Z,6.50
2022-12-25T23:57:16.791Z,7.00
2022-12-25T23:59:58.692Z,7.60
